Time;durP1;ratioP1;P1;durP2;ratioP2;P2;SDS_P1;SDS_P2;PMS_P1;PMS_P2;Temp;Humidity;BMP_temperature;BMP_pressure;BME280_temperature;BME280_humidity;BME280_pressure;Samples;Min_cycle;Max_cycle;Signal;HPM_P1;HPM_P2
2022/10/28 00:00:35;;;;;;;27.65;20.05;;;11.70;72.40;;;;;;6112269;23;115171;-83
2022/10/28 00:03:02;;;;;;;26.60;20.80;;;11.70;72.50;;;;;;6064502;23;114587;-82
2022/10/28 00:05:32;;;;;;;28.95;21.15;;;11.70;72.80;;;;;;6064073;23;114945;-84
2022/10/28 00:07:59;;;;;;;24.58;19.15;;;11.70;72.90;;;;;;6112228;23;114949;-83
2022/10/28 00:10:26;;;;;;;25.60;19.77;;;11.70;72.90;;;;;;6063428;23;114686;-83
2022/10/28 00:12:53;;;;;;;23.65;19.50;;;11.70;73.30;;;;;;6114968;22;115337;-82
2022/10/28 00:15:20;;;;;;;27.00;20.33;;;11.60;73.50;;;;;;6114815;22;114533;-83
2022/10/28 00:17:47;;;;;;;23.98;18.42;;;11.60;73.50;;;;;;6113002;23;114978;-83
2022/10/28 00:20:14;;;;;;;24.92;19.38;;;11.60;73.60;;;;;;6111370;23;114568;-83
2022/10/28 00:22:45;;;;;;;23.23;18.58;;;11.60;73.80;;;;;;6112699;23;114159;-83
2022/10/28 00:25:14;;;;;;;24.58;20.05;;;11.50;73.90;;;;;;6064510;23;114573;-82
2022/10/28 00:27:42;;;;;;;24.83;18.27;;;11.50;74.10;;;;;;6087650;23;115212;-82
2022/10/28 00:30:10;;;;;;;25.85;19.42;;;11.50;74.20;;;;;;6111545;23;114876;-82
2022/10/28 00:32:37;;;;;;;28.23;17.95;;;11.50;74.40;;;;;;6114132;23;114307;-81
2022/10/28 00:35:05;;;;;;;28.60;19.77;;;11.50;74.50;;;;;;6112742;23;114530;-82
2022/10/28 00:37:32;;;;;;;27.50;20.92;;;11.40;74.70;;;;;;6112780;22;114906;-82
2022/10/28 00:39:59;;;;;;;23.70;18.52;;;11.40;74.70;;;;;;6112890;23;115254;-82
2022/10/28 00:42:26;;;;;;;26.05;19.40;;;11.40;75.00;;;;;;6114242;23;115779;-82
2022/10/28 00:45:03;;;;;;;26.58;18.70;;;11.40;75.00;;;;;;6113428;23;114278;-82
2022/10/28 00:47:31;;;;;;;26.90;20.23;;;11.40;75.30;;;;;;6087403;23;115052;-83
2022/10/28 00:50:24;;;;;;;26.13;19.63;;;11.30;75.40;;;;;;6111425;23;114509;-82
2022/10/28 00:52:56;;;;;;;26.27;19.60;;;11.30;75.30;;;;;;6098161;23;114256;-84
2022/10/28 00:55:23;;;;;;;27.02;19.70;;;11.20;75.70;;;;;;6088831;23;114610;-83
2022/10/28 00:57:50;;;;;;;28.02;20.52;;;11.20;75.80;;;;;;6086712;23;115347;-83
2022/10/28 01:00:18;;;;;;;26.77;18.05;;;11.20;75.80;;;;;;6086938;23;114622;-83
2022/10/28 01:02:46;;;;;;;25.92;19.55;;;11.20;75.80;;;;;;6112630;23;114681;-83
2022/10/28 01:05:15;;;;;;;26.27;18.50;;;11.20;76.10;;;;;;6113228;23;114313;-83
2022/10/28 01:07:43;;;;;;;28.83;19.73;;;11.20;76.10;;;;;;6116922;23;114763;-83
2022/10/28 01:10:09;;;;;;;25.25;19.02;;;11.20;76.40;;;;;;6114930;23;114549;-84
2022/10/28 01:13:10;;;;;;;27.55;18.83;;;11.10;76.60;;;;;;6065805;23;114344;-83
2022/10/28 01:15:44;;;;;;;24.67;18.30;;;11.20;76.60;;;;;;6113416;23;114439;-83
2022/10/28 01:18:21;;;;;;;24.08;17.63;;;11.10;76.80;;;;;;6111693;23;114808;-83
2022/10/28 01:21:19;;;;;;;27.27;18.65;;;11.10;77.00;;;;;;6088176;23;114756;-83
2022/10/28 01:24:05;;;;;;;22.30;15.93;;;11.20;76.90;;;;;;6091576;23;114176;-83
2022/10/28 01:27:03;;;;;;;24.65;18.25;;;11.20;76.90;;;;;;6113101;23;114453;-82
2022/10/28 01:29:43;;;;;;;26.15;18.80;;;11.10;76.90;;;;;;6111802;23;114844;-83
2022/10/28 01:32:22;;;;;;;24.48;17.58;;;11.20;77.00;;;;;;6113105;23;114816;-82
2022/10/28 01:35:14;;;;;;;26.90;19.05;;;11.20;76.90;;;;;;6113049;23;114482;-82
2022/10/28 01:38:02;;;;;;;26.10;18.27;;;11.20;76.90;;;;;;6116605;23;114137;-83
2022/10/28 01:40:42;;;;;;;25.05;18.17;;;11.30;76.80;;;;;;6113029;23;114861;-82
2022/10/28 01:43:15;;;;;;;28.00;18.95;;;11.30;76.60;;;;;;6111546;23;116367;-83
2022/10/28 01:45:47;;;;;;;23.35;17.08;;;11.40;76.60;;;;;;6088492;23;114535;-84
2022/10/28 01:48:15;;;;;;;22.08;16.70;;;11.40;76.60;;;;;;6112785;23;114432;-84
2022/10/28 01:50:51;;;;;;;23.67;16.98;;;11.40;76.60;;;;;;6062537;23;116712;-84
2022/10/28 01:53:21;;;;;;;22.50;16.20;;;11.50;76.60;;;;;;6111214;23;116183;-83
2022/10/28 01:55:49;;;;;;;21.45;16.05;;;11.40;76.60;;;;;;6088190;23;114320;-85
2022/10/28 01:58:19;;;;;;;21.98;16.02;;;11.40;76.50;;;;;;6088297;23;114456;-84
2022/10/28 02:00:46;;;;;;;24.05;16.85;;;11.40;76.50;;;;;;6111449;23;114917;-84
2022/10/28 02:03:13;;;;;;;21.35;15.20;;;11.40;76.50;;;;;;6086712;23;114523;-84
2022/10/28 02:05:51;;;;;;;20.33;15.88;;;11.50;76.50;;;;;;6112518;23;114313;-84
2022/10/28 02:08:27;;;;;;;19.13;14.85;;;11.50;76.50;;;;;;6112399;23;114475;-84
2022/10/28 02:11:00;;;;;;;21.45;15.48;;;11.50;76.40;;;;;;6112740;23;114756;-83
2022/10/28 02:13:42;;;;;;;19.85;14.90;;;11.50;76.50;;;;;;6112759;23;114631;-83
2022/10/28 02:16:30;;;;;;;19.90;14.30;;;11.50;76.40;;;;;;6112564;23;114458;-82
2022/10/28 02:19:35;;;;;;;19.02;14.65;;;11.40;76.40;;;;;;6112718;23;114400;-83
2022/10/28 02:22:19;;;;;;;19.23;14.40;;;11.50;76.30;;;;;;6111120;23;114805;-82
2022/10/28 02:24:46;;;;;;;19.70;15.02;;;11.40;76.60;;;;;;6112472;22;114559;-83
2022/10/28 02:27:34;;;;;;;19.55;13.80;;;11.40;76.40;;;;;;6113929;23;114367;-83
2022/10/28 02:30:05;;;;;;;17.80;14.32;;;11.40;76.30;;;;;;6089855;23;114482;-83
2022/10/28 02:32:37;;;;;;;20.08;14.50;;;11.40;76.40;;;;;;6064529;23;115084;-83
2022/10/28 02:35:07;;;;;;;18.52;14.18;;;11.40;76.30;;;;;;6089418;23;114401;-83
2022/10/28 02:37:33;;;;;;;16.42;12.77;;;11.50;76.20;;;;;;6090070;23;114276;-83
2022/10/28 02:40:06;;;;;;;17.77;14.18;;;11.50;76.10;;;;;;6089964;23;114188;-83
2022/10/28 02:42:36;;;;;;;17.23;13.73;;;11.50;76.10;;;;;;6088738;23;115498;-82
2022/10/28 02:45:23;;;;;;;17.42;13.27;;;11.50;76.10;;;;;;6088499;23;115852;-82
2022/10/28 02:47:52;;;;;;;20.30;14.90;;;11.50;75.90;;;;;;6090100;23;114525;-83
2022/10/28 02:50:21;;;;;;;17.73;13.20;;;11.50;76.10;;;;;;6112699;23;114408;-82
2022/10/28 02:52:48;;;;;;;17.63;13.18;;;11.40;76.00;;;;;;6088034;23;114842;-83
2022/10/28 02:55:16;;;;;;;17.35;13.63;;;11.50;76.00;;;;;;6088235;23;115963;-83
2022/10/28 02:57:47;;;;;;;16.70;12.93;;;11.40;76.00;;;;;;6089416;23;114262;-82
2022/10/28 03:00:16;;;;;;;17.92;13.00;;;11.40;76.00;;;;;;6090295;23;115542;-84
2022/10/28 03:02:43;;;;;;;17.20;12.20;;;11.40;76.00;;;;;;6088794;23;114810;-83
2022/10/28 03:05:10;;;;;;;17.10;12.30;;;11.40;76.00;;;;;;6112571;23;114706;-83
2022/10/28 03:07:37;;;;;;;14.77;12.07;;;11.40;75.90;;;;;;6114253;23;114186;-83
2022/10/28 03:10:05;;;;;;;18.15;12.63;;;11.40;75.90;;;;;;6115649;22;114393;-83
2022/10/28 03:12:32;;;;;;;15.10;12.13;;;11.40;75.90;;;;;;6114223;22;115813;-83
2022/10/28 03:14:59;;;;;;;14.73;11.25;;;11.40;75.90;;;;;;6114435;23;114736;-83
2022/10/28 03:17:26;;;;;;;15.98;11.35;;;11.40;75.90;;;;;;6089384;23;114285;-84
2022/10/28 03:19:53;;;;;;;15.55;11.13;;;11.30;75.90;;;;;;6118259;23;114554;-83
2022/10/28 03:22:20;;;;;;;14.13;11.02;;;11.30;76.00;;;;;;6118235;23;114976;-83
2022/10/28 03:24:47;;;;;;;16.45;11.02;;;11.30;75.90;;;;;;6114568;23;115236;-83
2022/10/28 03:27:13;;;;;;;16.52;11.10;;;11.30;76.00;;;;;;6114102;23;114098;-82
2022/10/28 03:29:40;;;;;;;12.55;10.30;;;11.30;75.90;;;;;;6115513;23;115261;-84
2022/10/28 03:32:12;;;;;;;14.02;11.00;;;11.30;75.90;;;;;;6114139;23;114983;-83
2022/10/28 03:34:39;;;;;;;11.82;9.65;;;11.30;75.90;;;;;;6114137;23;114627;-82
2022/10/28 03:37:06;;;;;;;13.10;10.40;;;11.30;75.90;;;;;;6115346;23;114341;-83
2022/10/28 03:39:33;;;;;;;12.73;10.15;;;11.30;75.80;;;;;;6115453;23;114761;-81
2022/10/28 03:42:00;;;;;;;15.77;11.32;;;11.40;75.80;;;;;;6112471;23;115066;-82
2022/10/28 03:44:27;;;;;;;12.63;10.38;;;11.40;75.80;;;;;;6112146;23;114992;-83
2022/10/28 03:46:54;;;;;;;13.48;10.43;;;11.40;75.80;;;;;;6115015;22;114747;-81
2022/10/28 03:49:21;;;;;;;13.38;10.52;;;11.40;75.70;;;;;;6089274;23;114204;-83
2022/10/28 03:51:48;;;;;;;17.02;10.52;;;11.50;75.60;;;;;;6112128;23;114887;-83
2022/10/28 03:54:15;;;;;;;12.70;10.07;;;11.50;75.50;;;;;;6113477;23;114893;-82
2022/10/28 03:56:42;;;;;;;12.93;9.38;;;11.50;75.50;;;;;;6113701;23;114091;-82
2022/10/28 03:59:09;;;;;;;14.20;11.18;;;11.50;75.50;;;;;;6114185;23;114223;-83
2022/10/28 04:01:38;;;;;;;12.68;9.77;;;11.60;75.40;;;;;;6088267;23;114997;-82
2022/10/28 04:04:05;;;;;;;13.02;9.48;;;11.60;75.40;;;;;;6113971;23;114646;-82
2022/10/28 04:06:32;;;;;;;12.38;9.02;;;11.60;75.30;;;;;;6115292;22;114109;-83
2022/10/28 04:08:59;;;;;;;13.07;10.32;;;11.60;75.30;;;;;;6088924;23;114395;-82
2022/10/28 04:11:29;;;;;;;14.30;10.65;;;11.60;75.30;;;;;;6113691;22;114966;-83
2022/10/28 04:13:56;;;;;;;13.55;9.75;;;11.60;75.40;;;;;;6112189;23;114705;-83
2022/10/28 04:16:23;;;;;;;13.35;8.93;;;11.60;75.40;;;;;;6113493;23;116258;-83
2022/10/28 04:18:50;;;;;;;12.35;9.13;;;11.60;75.30;;;;;;6115250;22;114324;-83
2022/10/28 04:21:17;;;;;;;13.93;9.70;;;11.60;75.30;;;;;;6113520;23;116782;-83
2022/10/28 04:23:44;;;;;;;11.25;8.90;;;11.60;75.30;;;;;;6114095;23;115062;-83
2022/10/28 04:26:11;;;;;;;10.52;8.95;;;11.70;75.30;;;;;;6114819;23;114225;-83
2022/10/28 04:28:38;;;;;;;11.45;8.90;;;11.70;75.30;;;;;;6115461;23;114487;-82
2022/10/28 04:31:05;;;;;;;11.23;8.93;;;11.70;75.10;;;;;;6112431;23;114773;-83
2022/10/28 04:33:32;;;;;;;13.35;9.02;;;11.70;75.00;;;;;;6112275;23;115640;-83
2022/10/28 04:35:59;;;;;;;12.32;9.38;;;11.80;75.00;;;;;;6088935;23;114368;-83
2022/10/28 04:38:26;;;;;;;11.27;8.55;;;11.80;74.90;;;;;;6113304;23;114407;-82
2022/10/28 04:40:53;;;;;;;10.30;8.18;;;11.80;74.80;;;;;;6113701;23;114767;-82
2022/10/28 04:43:20;;;;;;;11.45;8.85;;;11.80;74.80;;;;;;6113736;22;114539;-82
2022/10/28 04:45:47;;;;;;;10.98;8.75;;;11.80;74.70;;;;;;6088489;23;114282;-82
2022/10/28 04:48:14;;;;;;;12.85;8.30;;;11.80;74.60;;;;;;6115406;23;114234;-81
2022/10/28 04:50:41;;;;;;;11.45;8.27;;;11.80;74.60;;;;;;6113645;23;114920;-83
2022/10/28 04:53:11;;;;;;;11.68;8.23;;;11.80;74.50;;;;;;6111556;23;114682;-83
2022/10/28 04:55:38;;;;;;;12.32;8.57;;;11.90;74.40;;;;;;6089399;23;114983;-83
2022/10/28 04:58:05;;;;;;;10.65;8.27;;;11.80;74.30;;;;;;6115176;22;114301;-83
2022/10/28 05:00:32;;;;;;;9.63;7.90;;;11.80;74.30;;;;;;6114041;22;114845;-83
2022/10/28 05:03:02;;;;;;;10.27;8.20;;;11.80;74.40;;;;;;6114205;23;114809;-83
2022/10/28 05:05:29;;;;;;;11.52;7.72;;;11.80;74.40;;;;;;6113368;23;114345;-83
2022/10/28 05:07:56;;;;;;;9.75;7.88;;;11.80;74.40;;;;;;6115243;23;114934;-83
2022/10/28 05:10:23;;;;;;;12.68;8.13;;;11.80;74.40;;;;;;6112270;23;115260;-83
2022/10/28 05:12:50;;;;;;;10.93;8.65;;;11.80;74.40;;;;;;6112365;23;114629;-82
2022/10/28 05:15:17;;;;;;;11.80;8.40;;;11.80;74.30;;;;;;6114514;22;114351;-83
2022/10/28 05:17:45;;;;;;;15.45;10.38;;;11.80;74.20;;;;;;6115161;22;114179;-83
2022/10/28 05:20:13;;;;;;;14.55;11.00;;;11.90;74.20;;;;;;6087882;23;114753;-83
2022/10/28 05:22:51;;;;;;;18.45;12.45;;;11.80;74.10;;;;;;6086132;23;116465;-83
2022/10/28 05:25:19;;;;;;;22.23;15.15;;;11.90;74.10;;;;;;6114644;23;114167;-83
2022/10/28 05:27:46;;;;;;;15.10;11.70;;;11.80;74.10;;;;;;6113257;23;114307;-84
2022/10/28 05:30:13;;;;;;;13.52;9.75;;;11.80;74.00;;;;;;6115624;23;115337;-83
2022/10/28 05:32:40;;;;;;;16.48;9.60;;;11.80;73.90;;;;;;6115037;23;114590;-84
2022/10/28 05:35:08;;;;;;;12.45;9.55;;;11.80;73.90;;;;;;6113558;23;114279;-83
2022/10/28 05:37:35;;;;;;;16.73;10.52;;;11.80;74.00;;;;;;6088513;23;114502;-82
2022/10/28 05:40:05;;;;;;;17.38;11.15;;;11.80;74.00;;;;;;6087334;23;115332;-84
2022/10/28 05:42:32;;;;;;;17.70;13.80;;;11.80;74.00;;;;;;6112319;22;116242;-84
2022/10/28 05:45:07;;;;;;;;;;;11.80;73.90;;;;;;6112829;22;114531;-82
2022/10/28 05:47:46;;;;;;;20.85;13.82;;;11.70;73.90;;;;;;6113994;22;115218;-82
2022/10/28 05:50:15;;;;;;;24.63;17.00;;;11.70;74.20;;;;;;6110340;23;115511;-82
2022/10/28 05:53:00;;;;;;;23.63;15.85;;;11.70;74.10;;;;;;6111008;22;115350;-82
2022/10/28 05:55:28;;;;;;;25.88;19.50;;;11.90;73.80;;;;;;6111635;23;115135;-82
2022/10/28 05:57:55;;;;;;;28.10;21.15;;;11.80;73.90;;;;;;6112651;22;115707;-82
2022/10/28 06:00:23;;;;;;;29.00;22.13;;;11.90;73.80;;;;;;6111397;23;114865;-83
2022/10/28 06:02:50;;;;;;;24.15;21.55;;;11.90;73.60;;;;;;6085868;23;115797;-83
2022/10/28 06:05:18;;;;;;;30.40;24.10;;;12.00;73.40;;;;;;6087060;23;114367;-83
2022/10/28 06:07:45;;;;;;;30.38;27.00;;;12.20;73.40;;;;;;6112765;23;114458;-83
2022/10/28 06:10:12;;;;;;;30.02;24.33;;;12.20;73.10;;;;;;6112801;23;114900;-83
2022/10/28 06:12:39;;;;;;;24.95;20.30;;;12.40;73.00;;;;;;6113440;23;115049;-83
2022/10/28 06:15:07;;;;;;;24.50;21.08;;;12.40;72.60;;;;;;6114723;22;115200;-83
2022/10/28 06:17:34;;;;;;;23.35;17.58;;;12.60;72.30;;;;;;6110973;23;114367;-81
2022/10/28 06:20:01;;;;;;;22.92;19.30;;;12.70;72.10;;;;;;6112312;23;114884;-83
2022/10/28 06:22:28;;;;;;;21.00;18.42;;;12.80;71.60;;;;;;6111988;23;115135;-83
2022/10/28 06:24:55;;;;;;;22.67;18.17;;;12.90;71.30;;;;;;6112908;23;114351;-82
2022/10/28 06:27:22;;;;;;;19.85;17.73;;;13.00;71.10;;;;;;6112876;23;114373;-82
2022/10/28 06:29:52;;;;;;;18.20;15.95;;;13.10;70.80;;;;;;6111614;23;114751;-82
2022/10/28 06:32:22;;;;;;;19.15;15.90;;;13.20;70.60;;;;;;6111481;23;115589;-83
2022/10/28 06:34:49;;;;;;;16.25;13.75;;;13.30;70.20;;;;;;6112801;23;114399;-83
2022/10/28 06:37:16;;;;;;;17.40;12.52;;;13.40;70.00;;;;;;6113826;23;114414;-83
2022/10/28 06:39:44;;;;;;;15.40;13.00;;;13.50;69.70;;;;;;6113853;23;114940;-84
2022/10/28 06:42:11;;;;;;;15.43;12.38;;;13.60;69.30;;;;;;6087709;23;115955;-83
2022/10/28 06:44:38;;;;;;;14.80;11.52;;;13.60;69.20;;;;;;6115138;23;114011;-83
2022/10/28 06:47:05;;;;;;;13.73;11.52;;;13.60;69.00;;;;;;6115029;23;114273;-83
2022/10/28 06:49:32;;;;;;;16.92;11.18;;;13.70;68.80;;;;;;6113680;23;114858;-82
2022/10/28 06:51:59;;;;;;;14.32;11.20;;;13.70;68.60;;;;;;6111475;23;114769;-82
2022/10/28 06:54:26;;;;;;;12.63;10.38;;;13.80;68.40;;;;;;6113683;22;114208;-83
2022/10/28 06:56:53;;;;;;;13.82;9.90;;;13.90;68.10;;;;;;6113934;23;116918;-83
2022/10/28 06:59:23;;;;;;;12.93;9.23;;;13.90;67.90;;;;;;6112691;23;114684;-83
2022/10/28 07:01:50;;;;;;;13.10;9.23;;;14.00;67.70;;;;;;6113497;23;115139;-83
2022/10/28 07:04:18;;;;;;;11.27;9.65;;;14.00;67.70;;;;;;6114279;23;114421;-82
2022/10/28 07:06:45;;;;;;;14.38;11.20;;;14.10;67.60;;;;;;6114425;23;114405;-82
2022/10/28 07:09:17;;;;;;;14.18;11.77;;;14.10;67.40;;;;;;6113224;23;114932;-83
2022/10/28 07:11:47;;;;;;;19.48;13.80;;;14.20;67.40;;;;;;6087647;23;117758;-81
2022/10/28 07:14:20;;;;;;;19.25;16.45;;;14.20;67.20;;;;;;6115102;23;114336;-81
2022/10/28 07:16:47;;;;;;;23.38;19.35;;;14.20;67.20;;;;;;6112116;23;114893;-82
2022/10/28 07:19:14;;;;;;;23.88;17.73;;;14.30;67.10;;;;;;6111787;23;115519;-82
2022/10/28 07:21:46;;;;;;;18.85;16.55;;;14.40;67.00;;;;;;6112444;23;116017;-82
2022/10/28 07:24:13;;;;;;;19.35;13.88;;;14.50;66.70;;;;;;6112832;23;115147;-83
2022/10/28 07:26:40;;;;;;;17.33;14.07;;;14.70;66.50;;;;;;6112012;23;114437;-83
2022/10/28 07:29:08;;;;;;;15.57;13.25;;;14.70;66.20;;;;;;6110994;23;115722;-83
2022/10/28 07:31:37;;;;;;;15.60;12.95;;;14.80;65.90;;;;;;6111329;23;115215;-84
2022/10/28 07:34:04;;;;;;;15.10;11.38;;;14.90;65.80;;;;;;6112198;23;114278;-82
2022/10/28 07:36:31;;;;;;;13.55;9.98;;;15.00;65.60;;;;;;6114401;22;115367;-82
2022/10/28 07:38:59;;;;;;;14.68;10.10;;;15.10;65.30;;;;;;6112910;23;115545;-83
2022/10/28 07:41:25;;;;;;;13.05;9.45;;;15.20;65.10;;;;;;6112677;23;115395;-82
2022/10/28 07:43:52;;;;;;;10.02;8.20;;;15.20;65.00;;;;;;6115723;23;114569;-82
2022/10/28 07:46:19;;;;;;;11.13;8.48;;;15.30;64.70;;;;;;6115911;23;114332;-83
2022/10/28 07:48:46;;;;;;;8.95;7.25;;;15.40;64.30;;;;;;6114513;23;116523;-83
2022/10/28 07:51:14;;;;;;;8.95;7.10;;;15.50;64.00;;;;;;6112061;23;114586;-82
2022/10/28 07:53:43;;;;;;;8.00;6.70;;;15.60;63.80;;;;;;6113105;23;114454;-81
2022/10/28 07:56:13;;;;;;;11.10;6.63;;;15.70;63.70;;;;;;6114097;23;114414;-82
2022/10/28 07:58:51;;;;;;;10.93;7.20;;;15.70;63.60;;;;;;6111227;23;114927;-82
2022/10/28 08:01:19;;;;;;;9.23;6.63;;;15.80;63.30;;;;;;6112998;23;114093;-82
2022/10/28 08:03:46;;;;;;;7.43;6.60;;;15.80;63.10;;;;;;6114465;22;114107;-83
2022/10/28 08:06:16;;;;;;;8.98;7.18;;;15.90;63.00;;;;;;6111997;23;114927;-82
2022/10/28 08:08:44;;;;;;;9.60;7.78;;;15.90;62.80;;;;;;6111292;23;114793;-82
2022/10/28 08:11:13;;;;;;;9.43;7.13;;;16.00;62.40;;;;;;6086663;23;118376;-82
2022/10/28 08:13:40;;;;;;;11.07;8.15;;;16.00;62.20;;;;;;6114143;22;114190;-82
2022/10/28 08:16:07;;;;;;;12.10;7.10;;;16.10;62.30;;;;;;6112618;23;115376;-83
2022/10/28 08:18:35;;;;;;;9.85;7.38;;;16.10;62.20;;;;;;6087022;23;115252;-82
2022/10/28 08:21:02;;;;;;;10.32;7.43;;;16.20;62.20;;;;;;6112548;22;114675;-83
2022/10/28 08:23:29;;;;;;;9.25;7.18;;;16.20;62.10;;;;;;6112204;23;114219;-83
2022/10/28 08:25:56;;;;;;;12.00;8.00;;;16.20;61.90;;;;;;6111746;23;114634;-83
2022/10/28 08:28:23;;;;;;;11.15;8.68;;;16.30;61.80;;;;;;6112228;23;114754;-83
2022/10/28 08:30:50;;;;;;;9.25;7.60;;;16.30;61.60;;;;;;6112439;22;114677;-84
2022/10/28 08:33:34;;;;;;;10.98;8.32;;;16.40;61.50;;;;;;6091363;23;114487;-83
2022/10/28 08:36:01;;;;;;;17.60;12.05;;;16.30;61.50;;;;;;6087977;23;114473;-82
2022/10/28 08:38:28;;;;;;;12.13;9.63;;;16.40;62.10;;;;;;6110672;23;114888;-81
2022/10/28 08:41:06;;;;;;;13.48;10.32;;;16.50;61.50;;;;;;6111809;23;114723;-82
2022/10/28 08:43:50;;;;;;;12.85;9.98;;;16.50;61.40;;;;;;6112541;23;114492;-82
2022/10/28 08:46:42;;;;;;;12.02;9.13;;;16.50;61.50;;;;;;6112367;23;115751;-82
2022/10/28 08:49:11;;;;;;;14.00;9.45;;;16.50;61.60;;;;;;6112434;22;116827;-82
2022/10/28 08:52:04;;;;;;;14.05;11.18;;;16.50;61.40;;;;;;6086835;23;115613;-81
2022/10/28 08:54:59;;;;;;;14.63;10.75;;;16.60;61.50;;;;;;6111955;23;114475;-84
2022/10/28 08:57:38;;;;;;;13.65;10.88;;;16.60;61.40;;;;;;6070956;23;114447;-82
2022/10/28 09:00:07;;;;;;;13.50;10.88;;;16.50;61.40;;;;;;6086953;23;115298;-84
2022/10/28 09:02:52;;;;;;;14.73;12.05;;;16.50;61.20;;;;;;6112341;22;114632;-83
2022/10/28 09:05:24;;;;;;;14.05;11.38;;;16.50;61.10;;;;;;6064197;23;114525;-83
2022/10/28 09:07:51;;;;;;;14.63;11.98;;;16.50;61.10;;;;;;6062554;23;115178;-83
2022/10/28 09:10:29;;;;;;;15.80;11.88;;;16.50;61.30;;;;;;6086161;23;114841;-82
2022/10/28 09:13:23;;;;;;;14.30;12.10;;;16.50;61.10;;;;;;6088832;23;115520;-83
2022/10/28 09:15:53;;;;;;;14.98;11.98;;;16.60;61.00;;;;;;6064200;23;116526;-84
2022/10/28 09:18:33;;;;;;;13.57;10.60;;;16.60;61.10;;;;;;6114955;23;114316;-82
2022/10/28 09:21:03;;;;;;;14.18;10.38;;;16.70;60.90;;;;;;6111847;23;115428;-83
2022/10/28 09:23:32;;;;;;;13.23;10.73;;;16.70;60.90;;;;;;6087723;23;114621;-83
2022/10/28 09:26:05;;;;;;;12.73;9.27;;;16.70;61.00;;;;;;6113040;23;114269;-83
2022/10/28 09:28:48;;;;;;;12.18;9.70;;;16.80;60.60;;;;;;6115093;22;114353;-83
2022/10/28 09:31:56;;;;;;;11.55;8.85;;;16.80;60.80;;;;;;6113009;23;115074;-83
2022/10/28 09:34:38;;;;;;;11.55;9.07;;;16.80;60.80;;;;;;6108965;23;115175;-83
2022/10/28 09:37:26;;;;;;;12.70;10.13;;;16.80;60.90;;;;;;6112503;23;114415;-83
2022/10/28 09:39:55;;;;;;;14.85;9.57;;;16.90;60.80;;;;;;6088728;23;114420;-83
2022/10/28 09:42:47;;;;;;;12.18;9.57;;;16.80;60.80;;;;;;6112018;23;115091;-83
2022/10/28 09:45:20;;;;;;;15.05;10.52;;;16.80;60.80;;;;;;6073031;23;115460;-82
2022/10/28 09:48:00;;;;;;;12.57;11.05;;;16.70;60.90;;;;;;6086906;23;114612;-83
2022/10/28 09:50:31;;;;;;;17.58;11.10;;;16.70;61.30;;;;;;6088746;23;114971;-82
2022/10/28 09:53:17;;;;;;;13.55;11.25;;;16.60;61.60;;;;;;6109245;23;114920;-82
2022/10/28 09:55:44;;;;;;;13.57;11.70;;;16.60;61.70;;;;;;6109427;23;114744;-83
2022/10/28 09:58:11;;;;;;;15.43;11.80;;;16.50;61.80;;;;;;6086207;23;114741;-83
2022/10/28 10:00:41;;;;;;;17.30;11.90;;;16.50;62.10;;;;;;6112932;22;116010;-82
2022/10/28 10:03:09;;;;;;;17.55;12.95;;;16.50;62.20;;;;;;6113310;23;115534;-82
2022/10/28 10:05:57;;;;;;;18.88;13.30;;;16.60;62.30;;;;;;6094134;23;114672;-84
2022/10/28 10:08:24;;;;;;;15.65;11.43;;;16.60;62.20;;;;;;6113521;23;114545;-83
2022/10/28 10:11:04;;;;;;;13.13;10.77;;;16.60;62.40;;;;;;6112758;23;114359;-83
2022/10/28 10:13:34;;;;;;;14.23;11.10;;;16.70;62.20;;;;;;6087155;23;115126;-84
2022/10/28 10:16:14;;;;;;;13.32;10.98;;;16.70;62.30;;;;;;6111692;23;114759;-82
2022/10/28 10:18:45;;;;;;;13.50;10.70;;;16.80;62.40;;;;;;6064723;23;114816;-84
2022/10/28 10:21:13;;;;;;;14.52;10.63;;;16.80;62.30;;;;;;6112184;23;114255;-86
2022/10/28 10:23:40;;;;;;;15.48;11.20;;;16.80;62.30;;;;;;6111119;23;114980;-85
2022/10/28 10:26:11;;;;;;;12.40;9.90;;;16.90;62.20;;;;;;6085939;23;114593;-85
2022/10/28 10:28:46;;;;;;;11.27;10.13;;;16.90;62.10;;;;;;6063196;23;114314;-83
2022/10/28 10:31:22;;;;;;;12.85;9.93;;;17.00;62.10;;;;;;6110685;23;114584;-83
2022/10/28 10:33:55;;;;;;;14.48;10.20;;;17.00;62.10;;;;;;6086052;23;118210;-84
2022/10/28 10:36:27;;;;;;;13.40;10.15;;;17.10;62.00;;;;;;6063205;23;115329;-84
2022/10/28 10:38:55;;;;;;;10.27;9.00;;;17.10;61.90;;;;;;6082718;23;114505;-83
2022/10/28 10:41:33;;;;;;;12.60;10.25;;;17.20;62.00;;;;;;6057496;23;114697;-81
2022/10/28 10:44:01;;;;;;;11.77;9.73;;;17.30;61.70;;;;;;6078911;23;115748;-82
2022/10/28 10:46:28;;;;;;;12.15;9.45;;;17.30;61.60;;;;;;6080064;23;114771;-82
2022/10/28 10:49:06;;;;;;;12.23;9.25;;;17.40;61.70;;;;;;6082699;23;114433;-81
2022/10/28 10:51:33;;;;;;;11.25;9.43;;;17.50;61.70;;;;;;6082363;23;114521;-81
2022/10/28 10:54:11;;;;;;;10.38;8.20;;;17.40;61.70;;;;;;6080715;23;115487;-81
2022/10/28 10:56:38;;;;;;;11.13;8.13;;;17.40;61.60;;;;;;6058766;23;115892;-82
2022/10/28 10:59:05;;;;;;;11.07;8.15;;;17.30;61.70;;;;;;6083450;23;114368;-82
2022/10/28 11:01:34;;;;;;;10.75;8.23;;;17.30;62.00;;;;;;6082707;23;114148;-82
2022/10/28 11:04:05;;;;;;;10.55;8.27;;;17.30;62.00;;;;;;6082947;23;116028;-81
2022/10/28 11:06:40;;;;;;;11.68;9.43;;;17.30;62.10;;;;;;6082118;23;114716;-82
2022/10/28 11:09:30;;;;;;;11.43;9.00;;;17.40;62.30;;;;;;6083484;23;115490;-80
2022/10/28 11:11:57;;;;;;;11.77;8.98;;;17.50;62.00;;;;;;6082954;23;114411;-81
2022/10/28 11:14:29;;;;;;;10.02;8.55;;;17.40;62.10;;;;;;6081189;23;114883;-82
2022/10/28 11:16:57;;;;;;;10.93;9.48;;;17.40;62.20;;;;;;6082844;23;114873;-82
2022/10/28 11:19:31;;;;;;;14.57;11.20;;;17.40;62.30;;;;;;6084789;23;114404;-82
2022/10/28 11:22:10;;;;;;;12.05;9.88;;;17.40;62.30;;;;;;6084072;23;114383;-82
2022/10/28 11:24:43;;;;;;;11.85;8.85;;;17.40;62.50;;;;;;6081546;23;114856;-81
2022/10/28 11:27:20;;;;;;;11.23;9.52;;;17.40;62.70;;;;;;6081439;23;115153;-82
2022/10/28 11:29:47;;;;;;;13.25;10.00;;;17.40;62.50;;;;;;6082022;23;115102;-81
2022/10/28 11:32:16;;;;;;;12.80;9.80;;;17.40;62.70;;;;;;6082924;23;117431;-80
2022/10/28 11:34:55;;;;;;;15.70;9.13;;;17.40;62.70;;;;;;6084623;23;114895;-81
2022/10/28 11:37:42;;;;;;;16.25;10.68;;;17.40;62.70;;;;;;6058586;23;114676;-82
2022/10/28 11:40:12;;;;;;;12.20;10.65;;;17.40;63.00;;;;;;6083692;23;114312;-81
2022/10/28 11:43:15;;;;;;;12.38;10.65;;;17.30;63.20;;;;;;6084561;23;115023;-81
2022/10/28 11:45:51;;;;;;;13.15;10.00;;;17.30;63.10;;;;;;6083558;23;115381;-81
2022/10/28 11:48:23;;;;;;;14.38;10.30;;;17.40;63.40;;;;;;6082782;23;114577;-80
2022/10/28 11:50:50;;;;;;;14.10;10.65;;;17.30;63.60;;;;;;6084603;23;114417;-81
2022/10/28 11:53:41;;;;;;;13.02;9.00;;;17.30;63.50;;;;;;6083713;23;114527;-82
2022/10/28 11:56:26;;;;;;;12.88;9.30;;;17.40;63.40;;;;;;6057520;23;114895;-82
2022/10/28 11:59:22;;;;;;;10.82;8.57;;;17.40;63.50;;;;;;6082598;23;115636;-82
2022/10/28 12:02:00;;;;;;;10.38;8.55;;;17.30;63.50;;;;;;6077790;23;114577;-82
2022/10/28 12:04:49;;;;;;;11.57;8.77;;;17.30;63.50;;;;;;6060460;23;114612;-82
2022/10/28 12:07:54;;;;;;;11.20;8.63;;;17.30;63.60;;;;;;6083548;23;114964;-82
2022/10/28 12:10:49;;;;;;;11.05;7.97;;;17.30;63.30;;;;;;6082843;23;114503;-81
2022/10/28 12:13:37;;;;;;;14.07;8.35;;;17.20;63.50;;;;;;6082983;23;114533;-81
2022/10/28 12:16:12;;;;;;;10.73;8.10;;;17.20;63.60;;;;;;6084623;23;114567;-82
2022/10/28 12:18:54;;;;;;;9.02;7.50;;;17.20;63.60;;;;;;6058109;23;114900;-81
2022/10/28 12:21:31;;;;;;;11.20;7.90;;;17.20;63.60;;;;;;6082214;23;114711;-82
2022/10/28 12:24:05;;;;;;;11.23;8.15;;;17.20;63.60;;;;;;6087776;23;114153;-81
2022/10/28 12:26:44;;;;;;;10.82;8.38;;;17.10;63.70;;;;;;6068863;23;114365;-82
2022/10/28 12:29:33;;;;;;;9.88;7.88;;;17.10;63.80;;;;;;6062126;23;114457;-81
2022/10/28 12:32:30;;;;;;;9.70;8.07;;;17.10;63.70;;;;;;6081971;23;114380;-80
2022/10/28 12:34:59;;;;;;;10.57;8.38;;;17.00;63.70;;;;;;6078729;23;114610;-81
2022/10/28 12:37:30;;;;;;;12.02;8.52;;;17.00;63.80;;;;;;6084847;23;114834;-81
2022/10/28 12:40:36;;;;;;;11.82;8.55;;;16.90;63.90;;;;;;6058235;23;115012;-81
2022/10/28 12:43:04;;;;;;;11.60;8.77;;;16.90;63.90;;;;;;6081119;23;114671;-81
2022/10/28 12:45:32;;;;;;;10.00;7.90;;;16.80;64.20;;;;;;6083998;23;114668;-82